createdAt,value
2018-02-27T00:01:01.928Z,8.40
2018-02-27T00:03:29.507Z,14.95
2018-02-27T00:05:57.865Z,13.35
2018-02-27T00:08:25.420Z,14.23
2018-02-27T00:10:53.006Z,12.57
2018-02-27T00:13:21.341Z,14.43
2018-02-27T00:15:48.917Z,13.00
2018-02-27T00:18:16.534Z,10.73
2018-02-27T00:20:44.078Z,14.25
2018-02-27T00:23:12.386Z,10.68
2018-02-27T00:25:39.969Z,5.43
2018-02-27T00:28:07.504Z,9.85
2018-02-27T00:30:35.100Z,6.60
2018-02-27T00:33:02.653Z,8.07
2018-02-27T00:35:30.287Z,7.95
2018-02-27T00:37:57.902Z,7.55
2018-02-27T00:40:26.269Z,6.55
2018-02-27T00:42:53.868Z,7.32
2018-02-27T00:45:21.421Z,7.50
2018-02-27T00:47:48.994Z,8.27
2018-02-27T00:50:16.557Z,9.95
2018-02-27T00:52:44.153Z,7.37
2018-02-27T00:55:11.884Z,9.77
2018-02-27T00:57:39.456Z,8.90
2018-02-27T01:00:07.053Z,7.00
2018-02-27T01:02:35.402Z,10.88
2018-02-27T01:05:02.986Z,6.90
2018-02-27T01:07:31.305Z,11.48
2018-02-27T01:09:58.904Z,8.15
2018-02-27T01:12:26.461Z,10.23
2018-02-27T01:14:54.025Z,8.15
2018-02-27T01:17:21.570Z,8.18
2018-02-27T01:19:49.177Z,10.73
2018-02-27T01:22:16.740Z,6.35
2018-02-27T01:24:45.135Z,8.10
2018-02-27T01:27:13.452Z,5.47
2018-02-27T01:29:41.022Z,5.90
2018-02-27T01:32:08.594Z,6.97
2018-02-27T01:34:36.164Z,7.12
2018-02-27T01:37:05.250Z,5.40
2018-02-27T01:39:32.824Z,6.50
2018-02-27T01:42:01.878Z,8.95
2018-02-27T01:44:29.470Z,9.48
2018-02-27T01:46:57.072Z,8.95
2018-02-27T01:49:24.680Z,9.18
2018-02-27T01:51:52.260Z,8.60
2018-02-27T01:54:20.625Z,12.48
2018-02-27T01:56:48.186Z,7.07
2018-02-27T01:59:15.749Z,11.90
2018-02-27T02:01:43.305Z,13.05
2018-02-27T02:04:10.860Z,5.93
2018-02-27T02:06:38.492Z,7.20
2018-02-27T02:09:06.051Z,10.25
2018-02-27T02:11:33.624Z,7.65
2018-02-27T02:14:01.189Z,6.25
2018-02-27T02:16:28.767Z,7.65
2018-02-27T02:18:56.334Z,9.63
2018-02-27T02:21:23.897Z,9.50
2018-02-27T02:23:51.480Z,8.75
2018-02-27T02:26:19.811Z,5.85
2018-02-27T02:28:47.382Z,4.65
2018-02-27T02:31:15.032Z,9.60
2018-02-27T02:33:42.612Z,8.65
2018-02-27T02:36:10.175Z,8.48
2018-02-27T02:38:37.770Z,7.05
2018-02-27T02:41:06.112Z,7.65
2018-02-27T02:43:33.676Z,7.72
2018-02-27T02:46:01.234Z,8.65
2018-02-27T02:48:28.805Z,10.73
2018-02-27T02:50:57.138Z,11.10
2018-02-27T02:53:24.711Z,7.18
2018-02-27T02:55:52.281Z,8.00
2018-02-27T02:58:19.881Z,8.43
2018-02-27T03:00:48.230Z,9.90
2018-02-27T03:03:15.794Z,7.03
2018-02-27T03:05:43.375Z,7.28
2018-02-27T03:08:11.728Z,8.13
2018-02-27T03:10:39.318Z,6.43
2018-02-27T03:13:07.657Z,8.82
2018-02-27T03:15:35.221Z,7.37
2018-02-27T03:18:02.793Z,9.07
2018-02-27T03:20:30.926Z,13.18
2018-02-27T03:22:58.427Z,6.45
2018-02-27T03:25:25.956Z,8.43
2018-02-27T03:27:53.476Z,8.43
2018-02-27T03:30:21.734Z,7.05
2018-02-27T03:32:49.233Z,7.60
2018-02-27T03:35:16.728Z,8.40
2018-02-27T03:37:44.246Z,11.40
2018-02-27T03:40:12.507Z,13.30
2018-02-27T03:42:40.833Z,14.77
2018-02-27T03:45:08.361Z,11.60
2018-02-27T03:47:35.942Z,9.48
2018-02-27T03:50:03.440Z,12.98
2018-02-27T03:52:32.517Z,8.18
2018-02-27T03:55:00.092Z,12.10
2018-02-27T03:57:28.413Z,11.05
2018-02-27T03:59:55.981Z,11.18
2018-02-27T04:02:23.560Z,12.55
2018-02-27T04:04:51.124Z,11.70
2018-02-27T04:07:18.678Z,8.10
2018-02-27T04:09:46.288Z,9.80
2018-02-27T04:12:14.614Z,6.75
2018-02-27T04:14:42.209Z,11.27
2018-02-27T04:17:11.288Z,10.25
2018-02-27T04:19:38.893Z,6.62
2018-02-27T04:22:07.263Z,9.77
2018-02-27T04:24:35.603Z,10.88
2018-02-27T04:27:03.137Z,11.90
2018-02-27T04:29:30.696Z,6.47
2018-02-27T04:31:58.295Z,10.05
2018-02-27T04:34:25.845Z,11.63
2018-02-27T04:36:53.432Z,15.13
2018-02-27T04:39:22.498Z,9.35
2018-02-27T04:41:50.064Z,10.15
2018-02-27T04:44:17.650Z,12.02
2018-02-27T04:46:45.986Z,9.60
2018-02-27T04:49:13.540Z,10.52
2018-02-27T04:51:41.102Z,7.85
2018-02-27T04:54:08.693Z,11.65
2018-02-27T04:56:36.261Z,15.60
2018-02-27T04:59:05.336Z,10.10
2018-02-27T05:01:32.885Z,9.05
2018-02-27T05:04:00.434Z,9.00
2018-02-27T05:06:28.022Z,8.00
2018-02-27T05:08:55.600Z,15.80
2018-02-27T05:11:23.171Z,9.30
2018-02-27T05:13:51.510Z,6.80
2018-02-27T05:16:19.071Z,6.18
2018-02-27T05:18:46.643Z,8.35
2018-02-27T05:21:15.715Z,12.32
2018-02-27T05:23:46.296Z,11.68
2018-02-27T05:26:14.605Z,8.38
2018-02-27T05:28:42.200Z,10.70
2018-02-27T05:31:09.823Z,8.98
2018-02-27T05:33:37.384Z,4.78
2018-02-27T05:36:05.007Z,12.32
2018-02-27T05:38:32.564Z,14.60
2018-02-27T05:41:00.145Z,14.43
2018-02-27T05:43:28.524Z,9.70
2018-02-27T05:45:56.851Z,10.10
2018-02-27T05:48:24.421Z,11.77
2018-02-27T05:50:52.012Z,7.50
2018-02-27T05:53:20.342Z,9.65
2018-02-27T05:55:47.925Z,10.07
2018-02-27T05:58:15.478Z,8.45
2018-02-27T06:00:43.057Z,10.15
2018-02-27T06:03:10.649Z,9.98
2018-02-27T06:05:39.040Z,13.10
2018-02-27T06:08:06.612Z,10.10
2018-02-27T06:10:35.180Z,11.15
2018-02-27T06:13:02.842Z,14.98
2018-02-27T06:15:31.184Z,11.07
2018-02-27T06:17:58.814Z,10.73
2018-02-27T06:20:26.412Z,10.98
2018-02-27T06:22:54.753Z,11.85
2018-02-27T06:25:22.311Z,9.00
2018-02-27T06:27:49.884Z,11.20
2018-02-27T06:30:17.482Z,8.60
2018-02-27T06:32:45.833Z,8.68
2018-02-27T06:35:13.392Z,15.38
2018-02-27T06:37:40.966Z,12.70
2018-02-27T06:40:08.517Z,11.20
2018-02-27T06:42:36.115Z,9.82
2018-02-27T06:45:03.677Z,12.40
2018-02-27T06:47:31.229Z,19.27
2018-02-27T06:49:59.590Z,9.50
2018-02-27T06:52:27.965Z,9.68
2018-02-27T06:54:55.561Z,10.23
2018-02-27T06:57:23.921Z,9.57
2018-02-27T06:59:52.255Z,8.75
2018-02-27T07:02:19.816Z,11.23
2018-02-27T07:04:47.375Z,9.73
2018-02-27T07:07:14.996Z,12.68
2018-02-27T07:09:42.686Z,12.15
2018-02-27T07:12:10.255Z,9.82
2018-02-27T07:14:37.857Z,13.25
2018-02-27T07:17:06.292Z,12.85
2018-02-27T07:19:33.961Z,10.45
2018-02-27T07:22:01.541Z,12.43
2018-02-27T07:24:29.105Z,9.32
2018-02-27T07:26:56.693Z,10.63
2018-02-27T07:29:25.034Z,13.88
2018-02-27T07:31:52.606Z,11.95
2018-02-27T07:34:20.186Z,14.80
2018-02-27T07:36:48.506Z,13.02
2018-02-27T07:39:16.142Z,15.43
2018-02-27T07:41:43.831Z,11.70
2018-02-27T07:44:11.424Z,11.82
2018-02-27T07:46:39.022Z,15.63
2018-02-27T07:49:07.363Z,9.43
2018-02-27T07:51:34.914Z,12.82
2018-02-27T07:54:02.497Z,15.88
2018-02-27T07:56:30.050Z,14.02
2018-02-27T07:58:58.394Z,10.63
2018-02-27T08:01:25.968Z,9.45
2018-02-27T08:03:53.562Z,9.85
2018-02-27T08:06:21.900Z,15.68
2018-02-27T08:08:49.477Z,15.35
2018-02-27T08:11:17.033Z,14.43
2018-02-27T08:13:44.598Z,15.20
2018-02-27T08:16:12.205Z,18.77
2018-02-27T08:18:39.761Z,10.93
2018-02-27T08:21:08.081Z,11.85
2018-02-27T08:23:35.646Z,11.70
2018-02-27T08:26:03.189Z,15.73
2018-02-27T08:28:30.773Z,14.23
2018-02-27T08:30:58.339Z,15.30
2018-02-27T08:33:25.920Z,19.20
2018-02-27T08:35:54.234Z,10.95
2018-02-27T08:38:21.804Z,12.40
2018-02-27T08:40:49.368Z,14.10
2018-02-27T08:43:17.004Z,11.90
2018-02-27T08:45:44.563Z,19.30
2018-02-27T08:48:12.131Z,16.00
2018-02-27T08:50:39.691Z,20.08
2018-02-27T08:53:07.370Z,19.15
2018-02-27T08:55:35.806Z,15.13
2018-02-27T08:58:04.129Z,17.40
2018-02-27T09:00:31.700Z,13.32
2018-02-27T09:02:59.276Z,19.35
2018-02-27T09:05:26.832Z,11.45
2018-02-27T09:07:54.387Z,12.93
2018-02-27T09:10:21.964Z,19.05
2018-02-27T09:12:49.558Z,17.10
2018-02-27T09:15:17.885Z,16.00
2018-02-27T09:17:45.463Z,16.80
2018-02-27T09:20:13.027Z,16.27
2018-02-27T09:22:40.610Z,13.05
2018-02-27T09:25:08.982Z,13.52
2018-02-27T09:27:37.324Z,13.27
2018-02-27T09:30:04.869Z,20.92
2018-02-27T09:32:32.413Z,27.45
2018-02-27T09:34:59.989Z,16.12
2018-02-27T09:37:27.497Z,22.23
2018-02-27T09:39:55.023Z,19.52
2018-02-27T09:42:22.569Z,20.20
2018-02-27T09:44:50.111Z,18.17
2018-02-27T09:47:17.659Z,12.90
2018-02-27T09:49:45.171Z,11.95
2018-02-27T09:52:12.721Z,16.12
2018-02-27T09:54:40.231Z,20.88
2018-02-27T09:57:08.535Z,16.60
2018-02-27T09:59:36.060Z,18.30
2018-02-27T10:02:04.366Z,21.25
2018-02-27T10:04:31.880Z,17.55
2018-02-27T10:06:59.437Z,19.05
2018-02-27T10:09:26.971Z,16.37
2018-02-27T10:11:54.489Z,16.10
2018-02-27T10:14:22.799Z,17.12
2018-02-27T10:16:50.338Z,15.95
2018-02-27T10:19:17.916Z,27.45
2018-02-27T10:21:46.168Z,17.23
2018-02-27T10:24:13.731Z,16.35
2018-02-27T10:26:41.341Z,15.52
2018-02-27T10:29:08.883Z,16.55
2018-02-27T10:31:36.439Z,15.40
2018-02-27T10:34:04.001Z,24.00
2018-02-27T10:36:31.518Z,23.17
2018-02-27T10:38:59.077Z,16.37
2018-02-27T10:41:27.380Z,19.35
2018-02-27T10:43:54.923Z,16.08
2018-02-27T10:46:22.454Z,14.23
2018-02-27T10:48:50.780Z,20.48
2018-02-27T10:51:18.317Z,21.00
2018-02-27T10:53:45.850Z,19.02
2018-02-27T10:56:13.407Z,13.85
2018-02-27T10:58:41.702Z,14.60
2018-02-27T11:01:15.841Z,15.00
2018-02-27T11:03:43.347Z,16.90
2018-02-27T11:06:10.882Z,17.90
2018-02-27T11:08:38.392Z,16.67
2018-02-27T11:11:06.698Z,17.30
2018-02-27T11:13:34.227Z,13.27
2018-02-27T11:16:02.534Z,16.20
2018-02-27T11:18:30.069Z,17.70
2018-02-27T11:20:58.372Z,24.85
2018-02-27T11:23:25.949Z,13.00
2018-02-27T11:25:53.520Z,18.37
2018-02-27T11:28:21.050Z,20.95
2018-02-27T11:30:48.592Z,23.80
2018-02-27T11:33:16.131Z,19.20
2018-02-27T11:35:43.664Z,17.50
2018-02-27T11:38:11.229Z,19.55
2018-02-27T11:40:38.843Z,19.67
2018-02-27T11:43:06.415Z,17.17
2018-02-27T11:45:33.980Z,20.02
2018-02-27T11:48:01.493Z,22.30
2018-02-27T11:50:29.811Z,24.05
2018-02-27T11:52:57.342Z,22.90
2018-02-27T11:55:25.656Z,19.75
2018-02-27T11:57:53.206Z,18.95
2018-02-27T12:00:20.871Z,21.92
2018-02-27T12:02:48.406Z,17.73
2018-02-27T12:05:15.941Z,16.90
2018-02-27T12:07:43.468Z,13.77
2018-02-27T12:10:10.985Z,17.62
2018-02-27T12:12:38.548Z,14.05
2018-02-27T12:15:06.857Z,15.27
2018-02-27T12:17:34.417Z,14.65
2018-02-27T12:20:01.936Z,19.30
2018-02-27T12:22:30.249Z,16.75
2018-02-27T12:24:57.800Z,18.77
2018-02-27T12:27:25.338Z,18.65
2018-02-27T12:29:52.877Z,17.75
2018-02-27T12:32:20.446Z,16.45
2018-02-27T12:34:48.731Z,23.40
2018-02-27T12:37:17.134Z,13.50
2018-02-27T12:39:44.695Z,16.73
2018-02-27T12:42:12.260Z,17.45
2018-02-27T12:44:39.810Z,22.17
2018-02-27T12:47:07.362Z,17.37
2018-02-27T12:49:34.935Z,17.75
2018-02-27T12:52:02.468Z,17.85
2018-02-27T12:54:30.782Z,16.27
2018-02-27T12:56:58.336Z,15.90
2018-02-27T12:59:25.903Z,21.60
2018-02-27T13:01:53.434Z,15.52
2018-02-27T13:04:20.965Z,13.65
2018-02-27T13:06:49.261Z,13.50
2018-02-27T13:09:17.585Z,15.05
2018-02-27T13:11:45.093Z,19.00
2018-02-27T13:14:13.398Z,14.50
2018-02-27T13:16:40.946Z,23.40
2018-02-27T13:19:09.292Z,15.77
2018-02-27T13:21:36.828Z,32.38
2018-02-27T13:24:04.361Z,18.60
2018-02-27T13:26:31.903Z,14.98
2018-02-27T13:28:59.466Z,17.73
2018-02-27T13:31:27.025Z,13.95
2018-02-27T13:33:54.567Z,19.85
2018-02-27T13:36:22.873Z,17.23
2018-02-27T13:38:50.447Z,15.43
2018-02-27T13:41:17.975Z,22.92
2018-02-27T13:43:45.497Z,19.05
2018-02-27T13:46:13.056Z,30.80
2018-02-27T13:48:45.760Z,19.83
2018-02-27T13:51:08.182Z,17.08
2018-02-27T13:53:35.711Z,20.83
2018-02-27T13:56:03.277Z,21.87
2018-02-27T13:58:30.783Z,22.30
2018-02-27T14:00:59.092Z,21.45
2018-02-27T14:03:26.659Z,16.85
2018-02-27T14:05:54.199Z,21.25
2018-02-27T14:08:21.724Z,22.33
2018-02-27T14:10:49.261Z,19.55
2018-02-27T14:13:16.807Z,23.73
2018-02-27T14:15:44.337Z,20.27
2018-02-27T14:18:11.912Z,19.95
2018-02-27T14:20:39.467Z,20.67
2018-02-27T14:23:06.971Z,18.73
2018-02-27T14:25:34.500Z,21.70
2018-02-27T14:28:02.027Z,16.77
2018-02-27T14:30:29.582Z,21.75
2018-02-27T14:32:57.174Z,17.00
2018-02-27T14:35:24.718Z,21.33
2018-02-27T14:37:52.240Z,19.02
2018-02-27T14:40:19.796Z,21.02
2018-02-27T14:42:47.316Z,18.67
2018-02-27T14:45:14.896Z,19.70
2018-02-27T14:47:42.492Z,20.08
2018-02-27T14:50:10.806Z,18.67
2018-02-27T14:52:38.350Z,20.77
2018-02-27T14:55:05.881Z,16.40
2018-02-27T14:57:34.192Z,22.80
2018-02-27T15:00:01.737Z,14.55
2018-02-27T15:02:29.274Z,20.30
2018-02-27T15:04:57.600Z,24.33
2018-02-27T15:07:25.133Z,20.20
2018-02-27T15:09:52.672Z,22.50
2018-02-27T15:12:20.284Z,23.48
2018-02-27T15:14:47.817Z,17.62
2018-02-27T15:17:15.345Z,21.23
2018-02-27T15:19:43.677Z,24.12
2018-02-27T15:22:11.219Z,23.23
2018-02-27T15:24:38.766Z,20.62
2018-02-27T15:27:06.313Z,21.83
2018-02-27T15:29:34.652Z,20.65
2018-02-27T15:32:02.228Z,25.85
2018-02-27T15:34:29.776Z,22.75
2018-02-27T15:36:57.324Z,19.50
2018-02-27T15:39:24.849Z,19.37
2018-02-27T15:41:52.383Z,23.67
2018-02-27T15:44:20.697Z,17.45
2018-02-27T15:46:48.223Z,18.40
2018-02-27T15:49:16.577Z,18.85
2018-02-27T15:51:44.115Z,24.77
2018-02-27T15:54:11.621Z,27.85
2018-02-27T15:56:40.014Z,22.48
2018-02-27T15:59:07.511Z,22.17
2018-02-27T16:01:35.072Z,22.37
2018-02-27T16:04:02.618Z,27.27
2018-02-27T16:06:30.166Z,23.48
2018-02-27T16:08:57.696Z,22.42
2018-02-27T16:11:26.025Z,21.45
2018-02-27T16:13:53.553Z,18.65
2018-02-27T16:16:21.100Z,21.95
2018-02-27T16:18:49.385Z,21.87
2018-02-27T16:21:17.787Z,22.73
2018-02-27T16:23:45.320Z,21.45
2018-02-27T16:26:13.643Z,22.65
2018-02-27T16:28:41.233Z,19.58
2018-02-27T16:31:08.794Z,18.20
2018-02-27T16:33:36.389Z,19.05
2018-02-27T16:36:03.946Z,19.87
2018-02-27T16:38:31.531Z,19.87
2018-02-27T16:40:59.075Z,21.40
2018-02-27T16:43:26.632Z,25.77
2018-02-27T16:45:54.183Z,32.85
2018-02-27T16:48:21.741Z,30.65
2018-02-27T16:50:50.043Z,20.80
2018-02-27T16:53:17.590Z,25.10
2018-02-27T16:55:45.139Z,21.90
2018-02-27T16:58:12.707Z,22.70
2018-02-27T17:00:40.285Z,26.50
2018-02-27T17:03:07.881Z,19.08
2018-02-27T17:05:35.450Z,20.05
2018-02-27T17:08:03.765Z,17.48
2018-02-27T17:10:31.501Z,22.65
2018-02-27T17:12:59.871Z,18.17
2018-02-27T17:15:27.721Z,19.50
2018-02-27T17:17:55.305Z,21.15
2018-02-27T17:20:22.902Z,21.05
2018-02-27T17:22:50.443Z,19.05
2018-02-27T17:25:18.777Z,23.27
2018-02-27T17:27:46.354Z,22.17
2018-02-27T17:30:13.942Z,18.48
2018-02-27T17:32:42.464Z,19.25
2018-02-27T17:35:10.036Z,27.15
2018-02-27T17:37:37.622Z,20.12
2018-02-27T17:40:05.959Z,19.30
2018-02-27T17:42:33.535Z,17.37
2018-02-27T17:45:01.111Z,21.45
2018-02-27T17:47:28.848Z,24.40
2018-02-27T17:49:56.450Z,25.10
2018-02-27T17:52:24.017Z,20.65
2018-02-27T17:54:52.351Z,22.42
2018-02-27T17:57:19.944Z,24.85
2018-02-27T17:59:47.526Z,23.20
2018-02-27T18:02:15.891Z,23.50
2018-02-27T18:04:43.466Z,27.20
2018-02-27T18:07:11.797Z,27.02
2018-02-27T18:09:39.397Z,24.17
2018-02-27T18:12:07.726Z,26.33
2018-02-27T18:14:35.324Z,20.42
2018-02-27T18:17:02.877Z,23.70
2018-02-27T18:19:30.479Z,20.35
2018-02-27T18:21:58.055Z,25.65
2018-02-27T18:24:25.651Z,21.75
2018-02-27T18:26:53.265Z,18.55
2018-02-27T18:29:20.825Z,25.50
2018-02-27T18:31:48.440Z,19.30
2018-02-27T18:34:16.051Z,23.33
2018-02-27T18:36:43.732Z,21.48
2018-02-27T18:39:11.349Z,25.23
2018-02-27T18:41:39.692Z,24.02
2018-02-27T18:44:08.338Z,21.75
2018-02-27T18:46:35.923Z,25.37
2018-02-27T18:49:03.542Z,23.27
2018-02-27T18:51:31.123Z,23.27
2018-02-27T18:53:59.216Z,25.42
2018-02-27T18:56:27.125Z,23.67
2018-02-27T18:58:55.513Z,27.33
2018-02-27T19:01:23.114Z,26.15
2018-02-27T19:03:50.809Z,24.60
2018-02-27T19:06:18.406Z,23.55
2018-02-27T19:08:46.776Z,23.77
2018-02-27T19:11:15.113Z,21.50
2018-02-27T19:13:42.690Z,29.63
2018-02-27T19:16:10.301Z,18.67
2018-02-27T19:18:38.624Z,30.75
2018-02-27T19:21:06.242Z,24.87
2018-02-27T19:23:33.830Z,17.25
2018-02-27T19:26:01.490Z,21.77
2018-02-27T19:28:29.064Z,23.10
2018-02-27T19:30:56.651Z,30.08
2018-02-27T19:33:24.365Z,26.90
2018-02-27T19:35:51.964Z,24.80
2018-02-27T19:38:19.558Z,29.58
2018-02-27T19:40:47.919Z,24.42
2018-02-27T19:43:17.168Z,25.27
2018-02-27T19:45:44.752Z,26.52
2018-02-27T19:48:12.617Z,27.75
2018-02-27T19:50:40.185Z,23.80
2018-02-27T19:53:07.802Z,23.15
2018-02-27T19:55:35.409Z,22.55
2018-02-27T19:58:03.047Z,24.60
2018-02-27T20:00:30.634Z,24.15
2018-02-27T20:02:58.267Z,21.65
2018-02-27T20:05:25.839Z,25.27
2018-02-27T20:07:53.457Z,25.27
2018-02-27T20:10:21.952Z,25.85
2018-02-27T20:12:49.548Z,20.33
2018-02-27T20:15:17.136Z,19.05
2018-02-27T20:17:51.106Z,21.85
2018-02-27T20:20:18.812Z,25.70
2018-02-27T20:22:52.872Z,17.67
2018-02-27T20:25:20.429Z,18.45
2018-02-27T20:27:48.054Z,19.02
2018-02-27T20:30:15.693Z,25.77
2018-02-27T20:32:43.295Z,19.00
2018-02-27T20:35:10.889Z,25.73
2018-02-27T20:37:38.471Z,21.50
2018-02-27T20:40:06.114Z,24.15
2018-02-27T20:42:33.678Z,23.80
2018-02-27T20:45:01.274Z,33.25
2018-02-27T20:47:29.636Z,124.65
2018-02-27T20:49:57.249Z,64.18
2018-02-27T20:52:24.836Z,65.35
2018-02-27T20:54:52.464Z,43.55
2018-02-27T20:57:20.110Z,33.72
2018-02-27T20:59:47.773Z,33.25
2018-02-27T21:02:16.183Z,38.40
2018-02-27T21:04:43.765Z,35.65
2018-02-27T21:07:11.415Z,33.90
2018-02-27T21:09:39.012Z,32.28
2018-02-27T21:12:06.614Z,25.08
2018-02-27T21:14:34.171Z,28.70
2018-02-27T21:17:01.863Z,24.10
2018-02-27T21:19:29.420Z,25.17
2018-02-27T21:21:57.012Z,24.55
2018-02-27T21:24:24.641Z,29.83
2018-02-27T21:26:52.221Z,22.87
2018-02-27T21:29:19.828Z,17.85
2018-02-27T21:31:48.152Z,27.58
2018-02-27T21:34:15.754Z,22.75
2018-02-27T21:36:44.096Z,19.42
2018-02-27T21:39:11.689Z,22.98
2018-02-27T21:41:40.048Z,18.52
2018-02-27T21:44:07.646Z,19.50
2018-02-27T21:46:36.018Z,29.67
2018-02-27T21:49:04.386Z,23.50
2018-02-27T21:51:32.716Z,20.15
2018-02-27T21:54:00.329Z,26.62
2018-02-27T21:56:28.746Z,23.90
2018-02-27T21:58:56.338Z,16.75
2018-02-27T22:01:23.928Z,26.10
2018-02-27T22:03:52.261Z,22.27
2018-02-27T22:06:19.857Z,21.65
2018-02-27T22:08:47.434Z,20.40
2018-02-27T22:11:15.792Z,22.55
2018-02-27T22:13:43.369Z,23.05
2018-02-27T22:16:11.727Z,21.73
2018-02-27T22:18:40.106Z,29.15
2018-02-27T22:21:07.658Z,22.83
2018-02-27T22:23:35.253Z,22.30
2018-02-27T22:26:03.674Z,30.50
2018-02-27T22:28:31.272Z,26.50
2018-02-27T22:30:59.610Z,29.50
2018-02-27T22:33:27.198Z,24.98
2018-02-27T22:35:54.776Z,36.65
2018-02-27T22:38:22.465Z,24.40
2018-02-27T22:40:50.044Z,25.67
2018-02-27T22:43:17.614Z,21.67
2018-02-27T22:45:45.176Z,27.40
2018-02-27T22:48:12.757Z,22.75
2018-02-27T22:50:40.335Z,23.42
2018-02-27T22:53:07.924Z,27.25
2018-02-27T22:55:36.438Z,25.23
2018-02-27T22:58:04.080Z,29.12
2018-02-27T23:00:40.505Z,26.05
2018-02-27T23:03:08.089Z,28.83
2018-02-27T23:05:36.431Z,24.85
2018-02-27T23:08:04.009Z,19.73
2018-02-27T23:10:32.345Z,26.85
2018-02-27T23:12:59.993Z,31.50
2018-02-27T23:15:27.558Z,32.58
2018-02-27T23:17:55.133Z,24.83
2018-02-27T23:20:22.694Z,21.77
2018-02-27T23:22:50.290Z,24.17
2018-02-27T23:25:32.624Z,32.38
2018-02-27T23:28:03.632Z,26.83
2018-02-27T23:30:31.530Z,35.78
2018-02-27T23:33:01.892Z,20.60
2018-02-27T23:35:29.449Z,37.83
2018-02-27T23:37:57.218Z,24.63
2018-02-27T23:40:24.859Z,23.70
2018-02-27T23:42:52.553Z,28.05
2018-02-27T23:45:20.137Z,38.67
2018-02-27T23:47:48.477Z,32.80
2018-02-27T23:50:16.088Z,21.65
2018-02-27T23:52:43.707Z,23.70
2018-02-27T23:55:11.286Z,26.42
2018-02-27T23:57:38.836Z,32.13
